sensor_id;sensor_type;location;lat;lon;timestamp;P1;durP1;ratioP1;P2;durP2;ratioP2
11582;SDS011;34299;50.820;4.548;2023-07-20T00:00:25;2.70;;;1.50;;
11582;SDS011;34299;50.820;4.548;2023-07-20T00:03:09;4.30;;;1.80;;
11582;SDS011;34299;50.820;4.548;2023-07-20T00:05:37;3.63;;;1.87;;
11582;SDS011;34299;50.820;4.548;2023-07-20T00:08:05;1.93;;;1.70;;
11582;SDS011;34299;50.820;4.548;2023-07-20T00:10:32;4.50;;;2.03;;
11582;SDS011;34299;50.820;4.548;2023-07-20T00:12:59;3.67;;;1.70;;
11582;SDS011;34299;50.820;4.548;2023-07-20T00:15:26;2.63;;;1.70;;
11582;SDS011;34299;50.820;4.548;2023-07-20T00:17:54;5.23;;;2.07;;
11582;SDS011;34299;50.820;4.548;2023-07-20T00:20:23;4.63;;;2.00;;
11582;SDS011;34299;50.820;4.548;2023-07-20T00:22:52;4.20;;;2.40;;
11582;SDS011;34299;50.820;4.548;2023-07-20T00:25:20;6.47;;;1.60;;
11582;SDS011;34299;50.820;4.548;2023-07-20T00:27:47;7.37;;;1.93;;
11582;SDS011;34299;50.820;4.548;2023-07-20T00:30:14;3.93;;;1.83;;
11582;SDS011;34299;50.820;4.548;2023-07-20T00:32:41;3.73;;;1.73;;
11582;SDS011;34299;50.820;4.548;2023-07-20T00:35:09;8.00;;;2.13;;
11582;SDS011;34299;50.820;4.548;2023-07-20T00:37:37;3.50;;;2.00;;
11582;SDS011;34299;50.820;4.548;2023-07-20T00:40:06;8.30;;;2.67;;
11582;SDS011;34299;50.820;4.548;2023-07-20T00:42:34;6.10;;;2.10;;
11582;SDS011;34299;50.820;4.548;2023-07-20T00:45:01;3.07;;;1.93;;
11582;SDS011;34299;50.820;4.548;2023-07-20T00:47:28;5.17;;;2.27;;
11582;SDS011;34299;50.820;4.548;2023-07-20T00:49:55;4.23;;;1.83;;
11582;SDS011;34299;50.820;4.548;2023-07-20T00:52:23;6.37;;;2.00;;
11582;SDS011;34299;50.820;4.548;2023-07-20T00:54:52;6.43;;;2.57;;
11582;SDS011;34299;50.820;4.548;2023-07-20T00:57:22;8.20;;;2.20;;
11582;SDS011;34299;50.820;4.548;2023-07-20T00:59:51;3.77;;;1.90;;
11582;SDS011;34299;50.820;4.548;2023-07-20T01:02:18;2.67;;;1.50;;
11582;SDS011;34299;50.820;4.548;2023-07-20T01:04:46;5.63;;;1.90;;
11582;SDS011;34299;50.820;4.548;2023-07-20T01:07:14;3.33;;;2.20;;
11582;SDS011;34299;50.820;4.548;2023-07-20T01:09:45;5.37;;;2.27;;
11582;SDS011;34299;50.820;4.548;2023-07-20T01:12:18;4.63;;;2.13;;
11582;SDS011;34299;50.820;4.548;2023-07-20T01:14:49;2.93;;;1.63;;
11582;SDS011;34299;50.820;4.548;2023-07-20T01:17:17;3.50;;;2.07;;
11582;SDS011;34299;50.820;4.548;2023-07-20T01:19:44;6.77;;;2.57;;
11582;SDS011;34299;50.820;4.548;2023-07-20T01:22:15;3.80;;;1.90;;
11582;SDS011;34299;50.820;4.548;2023-07-20T01:24:52;5.07;;;2.43;;
11582;SDS011;34299;50.820;4.548;2023-07-20T01:27:43;7.07;;;2.43;;
11582;SDS011;34299;50.820;4.548;2023-07-20T01:32:58;6.57;;;2.03;;
11582;SDS011;34299;50.820;4.548;2023-07-20T01:35:27;3.60;;;2.00;;
11582;SDS011;34299;50.820;4.548;2023-07-20T01:37:55;10.63;;;2.30;;
11582;SDS011;34299;50.820;4.548;2023-07-20T01:40:23;4.57;;;2.20;;
11582;SDS011;34299;50.820;4.548;2023-07-20T01:42:51;6.63;;;2.33;;
11582;SDS011;34299;50.820;4.548;2023-07-20T01:45:18;12.27;;;3.10;;
11582;SDS011;34299;50.820;4.548;2023-07-20T01:47:46;6.63;;;2.43;;
11582;SDS011;34299;50.820;4.548;2023-07-20T01:50:14;8.83;;;3.67;;
11582;SDS011;34299;50.820;4.548;2023-07-20T01:52:41;3.50;;;2.67;;
11582;SDS011;34299;50.820;4.548;2023-07-20T01:55:09;5.70;;;2.47;;
11582;SDS011;34299;50.820;4.548;2023-07-20T01:57:36;4.40;;;2.67;;
11582;SDS011;34299;50.820;4.548;2023-07-20T02:00:03;6.47;;;2.70;;
11582;SDS011;34299;50.820;4.548;2023-07-20T02:02:31;5.17;;;2.93;;
11582;SDS011;34299;50.820;4.548;2023-07-20T02:04:58;4.97;;;2.67;;
11582;SDS011;34299;50.820;4.548;2023-07-20T02:07:26;4.50;;;2.47;;
11582;SDS011;34299;50.820;4.548;2023-07-20T02:09:54;4.80;;;2.43;;
11582;SDS011;34299;50.820;4.548;2023-07-20T02:12:21;7.00;;;3.20;;
11582;SDS011;34299;50.820;4.548;2023-07-20T02:14:48;4.97;;;2.67;;
11582;SDS011;34299;50.820;4.548;2023-07-20T02:17:16;5.23;;;3.03;;
11582;SDS011;34299;50.820;4.548;2023-07-20T02:19:43;4.50;;;3.10;;
11582;SDS011;34299;50.820;4.548;2023-07-20T02:22:10;4.03;;;2.70;;
11582;SDS011;34299;50.820;4.548;2023-07-20T02:24:39;4.50;;;2.43;;
11582;SDS011;34299;50.820;4.548;2023-07-20T02:27:06;4.53;;;2.83;;
11582;SDS011;34299;50.820;4.548;2023-07-20T02:29:33;7.80;;;2.93;;
11582;SDS011;34299;50.820;4.548;2023-07-20T02:32:01;6.53;;;3.20;;
11582;SDS011;34299;50.820;4.548;2023-07-20T02:34:28;10.20;;;2.73;;
11582;SDS011;34299;50.820;4.548;2023-07-20T02:36:55;11.43;;;3.93;;
11582;SDS011;34299;50.820;4.548;2023-07-20T02:39:24;3.70;;;2.80;;
11582;SDS011;34299;50.820;4.548;2023-07-20T02:41:52;7.27;;;2.87;;
11582;SDS011;34299;50.820;4.548;2023-07-20T02:44:19;9.33;;;3.53;;
11582;SDS011;34299;50.820;4.548;2023-07-20T02:46:47;6.43;;;3.90;;
11582;SDS011;34299;50.820;4.548;2023-07-20T02:49:14;6.97;;;3.13;;
11582;SDS011;34299;50.820;4.548;2023-07-20T02:51:42;6.57;;;2.43;;
11582;SDS011;34299;50.820;4.548;2023-07-20T02:54:09;8.90;;;3.37;;
11582;SDS011;34299;50.820;4.548;2023-07-20T02:56:37;7.07;;;3.60;;
11582;SDS011;34299;50.820;4.548;2023-07-20T02:59:06;7.70;;;3.63;;
11582;SDS011;34299;50.820;4.548;2023-07-20T03:01:33;9.27;;;3.57;;
11582;SDS011;34299;50.820;4.548;2023-07-20T03:04:00;7.73;;;3.73;;
11582;SDS011;34299;50.820;4.548;2023-07-20T03:06:27;8.53;;;3.53;;
11582;SDS011;34299;50.820;4.548;2023-07-20T03:08:54;9.10;;;3.60;;
11582;SDS011;34299;50.820;4.548;2023-07-20T03:11:23;4.80;;;3.17;;
11582;SDS011;34299;50.820;4.548;2023-07-20T03:13:50;6.80;;;3.37;;
11582;SDS011;34299;50.820;4.548;2023-07-20T03:16:19;9.57;;;3.47;;
11582;SDS011;34299;50.820;4.548;2023-07-20T03:18:46;9.70;;;3.27;;
11582;SDS011;34299;50.820;4.548;2023-07-20T03:21:13;5.93;;;3.83;;
11582;SDS011;34299;50.820;4.548;2023-07-20T03:23:40;7.17;;;3.30;;
11582;SDS011;34299;50.820;4.548;2023-07-20T03:26:08;5.30;;;3.50;;
11582;SDS011;34299;50.820;4.548;2023-07-20T03:28:35;8.27;;;3.83;;
11582;SDS011;34299;50.820;4.548;2023-07-20T03:31:02;11.47;;;4.10;;
11582;SDS011;34299;50.820;4.548;2023-07-20T03:33:31;7.40;;;3.90;;
11582;SDS011;34299;50.820;4.548;2023-07-20T03:35:59;6.63;;;3.77;;
11582;SDS011;34299;50.820;4.548;2023-07-20T03:38:26;7.17;;;4.17;;
11582;SDS011;34299;50.820;4.548;2023-07-20T03:40:54;10.13;;;4.60;;
11582;SDS011;34299;50.820;4.548;2023-07-20T03:43:21;8.70;;;4.60;;
11582;SDS011;34299;50.820;4.548;2023-07-20T03:45:49;8.50;;;4.57;;
11582;SDS011;34299;50.820;4.548;2023-07-20T03:48:17;7.77;;;4.30;;
11582;SDS011;34299;50.820;4.548;2023-07-20T03:50:46;6.77;;;4.10;;
11582;SDS011;34299;50.820;4.548;2023-07-20T03:53:13;8.40;;;4.97;;
11582;SDS011;34299;50.820;4.548;2023-07-20T03:55:41;9.97;;;4.43;;
11582;SDS011;34299;50.820;4.548;2023-07-20T03:58:08;8.67;;;4.50;;
11582;SDS011;34299;50.820;4.548;2023-07-20T04:00:36;8.67;;;4.60;;
11582;SDS011;34299;50.820;4.548;2023-07-20T04:03:03;13.13;;;4.90;;
11582;SDS011;34299;50.820;4.548;2023-07-20T04:05:30;11.70;;;5.07;;
11582;SDS011;34299;50.820;4.548;2023-07-20T04:07:59;7.33;;;5.33;;
11582;SDS011;34299;50.820;4.548;2023-07-20T04:10:26;12.57;;;4.77;;
11582;SDS011;34299;50.820;4.548;2023-07-20T04:12:53;10.77;;;5.50;;
11582;SDS011;34299;50.820;4.548;2023-07-20T04:15:20;11.10;;;4.77;;
11582;SDS011;34299;50.820;4.548;2023-07-20T04:17:48;8.53;;;4.67;;
11582;SDS011;34299;50.820;4.548;2023-07-20T04:20:15;10.47;;;4.87;;
11582;SDS011;34299;50.820;4.548;2023-07-20T04:22:43;11.27;;;4.57;;
11582;SDS011;34299;50.820;4.548;2023-07-20T04:25:11;12.47;;;5.43;;
11582;SDS011;34299;50.820;4.548;2023-07-20T04:27:39;6.93;;;4.53;;
11582;SDS011;34299;50.820;4.548;2023-07-20T04:30:07;8.27;;;5.13;;
11582;SDS011;34299;50.820;4.548;2023-07-20T04:32:34;10.57;;;5.33;;
11582;SDS011;34299;50.820;4.548;2023-07-20T04:35:05;9.90;;;4.70;;
11582;SDS011;34299;50.820;4.548;2023-07-20T04:37:33;10.83;;;5.50;;
11582;SDS011;34299;50.820;4.548;2023-07-20T04:40:01;14.10;;;5.30;;
11582;SDS011;34299;50.820;4.548;2023-07-20T04:42:30;7.73;;;4.87;;
11582;SDS011;34299;50.820;4.548;2023-07-20T04:44:57;10.70;;;5.43;;
11582;SDS011;34299;50.820;4.548;2023-07-20T04:47:24;6.87;;;4.63;;
11582;SDS011;34299;50.820;4.548;2023-07-20T04:49:51;7.57;;;4.30;;
11582;SDS011;34299;50.820;4.548;2023-07-20T04:52:18;12.27;;;4.80;;
11582;SDS011;34299;50.820;4.548;2023-07-20T04:54:46;9.77;;;5.10;;
11582;SDS011;34299;50.820;4.548;2023-07-20T04:57:13;11.70;;;5.73;;
11582;SDS011;34299;50.820;4.548;2023-07-20T04:59:41;11.73;;;5.17;;
11582;SDS011;34299;50.820;4.548;2023-07-20T05:02:08;9.70;;;5.20;;
11582;SDS011;34299;50.820;4.548;2023-07-20T05:04:36;11.57;;;5.23;;
11582;SDS011;34299;50.820;4.548;2023-07-20T05:07:03;8.60;;;4.97;;
11582;SDS011;34299;50.820;4.548;2023-07-20T05:09:30;8.87;;;5.47;;
11582;SDS011;34299;50.820;4.548;2023-07-20T05:11:58;9.27;;;4.87;;
11582;SDS011;34299;50.820;4.548;2023-07-20T05:14:25;12.87;;;5.30;;
11582;SDS011;34299;50.820;4.548;2023-07-20T05:16:54;10.53;;;6.07;;
11582;SDS011;34299;50.820;4.548;2023-07-20T05:19:21;9.70;;;4.50;;
11582;SDS011;34299;50.820;4.548;2023-07-20T05:21:48;10.67;;;4.93;;
11582;SDS011;34299;50.820;4.548;2023-07-20T05:24:15;13.60;;;5.83;;
11582;SDS011;34299;50.820;4.548;2023-07-20T05:26:42;10.80;;;5.20;;
11582;SDS011;34299;50.820;4.548;2023-07-20T05:29:10;7.83;;;4.83;;
11582;SDS011;34299;50.820;4.548;2023-07-20T05:31:37;12.07;;;6.17;;
11582;SDS011;34299;50.820;4.548;2023-07-20T05:34:06;15.87;;;5.63;;
11582;SDS011;34299;50.820;4.548;2023-07-20T05:36:33;12.90;;;6.30;;
11582;SDS011;34299;50.820;4.548;2023-07-20T05:39:00;9.70;;;5.53;;
11582;SDS011;34299;50.820;4.548;2023-07-20T05:41:27;9.97;;;5.80;;
11582;SDS011;34299;50.820;4.548;2023-07-20T05:43:54;11.00;;;5.47;;
11582;SDS011;34299;50.820;4.548;2023-07-20T05:46:22;13.00;;;6.10;;
11582;SDS011;34299;50.820;4.548;2023-07-20T05:48:49;10.13;;;5.40;;
11582;SDS011;34299;50.820;4.548;2023-07-20T05:51:18;10.03;;;6.13;;
11582;SDS011;34299;50.820;4.548;2023-07-20T05:53:45;10.33;;;5.53;;
11582;SDS011;34299;50.820;4.548;2023-07-20T05:56:13;7.73;;;5.37;;
11582;SDS011;34299;50.820;4.548;2023-07-20T05:58:40;14.83;;;7.20;;
11582;SDS011;34299;50.820;4.548;2023-07-20T06:01:07;14.77;;;6.53;;
11582;SDS011;34299;50.820;4.548;2023-07-20T06:03:34;8.73;;;5.90;;
11582;SDS011;34299;50.820;4.548;2023-07-20T06:06:02;11.37;;;5.87;;
11582;SDS011;34299;50.820;4.548;2023-07-20T06:08:32;12.17;;;6.43;;
11582;SDS011;34299;50.820;4.548;2023-07-20T06:10:59;9.50;;;5.87;;
11582;SDS011;34299;50.820;4.548;2023-07-20T06:13:26;10.03;;;5.67;;
11582;SDS011;34299;50.820;4.548;2023-07-20T06:15:54;9.73;;;5.90;;
11582;SDS011;34299;50.820;4.548;2023-07-20T06:18:22;11.60;;;5.87;;
11582;SDS011;34299;50.820;4.548;2023-07-20T06:20:49;9.47;;;6.03;;
11582;SDS011;34299;50.820;4.548;2023-07-20T06:23:17;11.17;;;5.87;;
11582;SDS011;34299;50.820;4.548;2023-07-20T06:25:45;8.23;;;5.20;;
11582;SDS011;34299;50.820;4.548;2023-07-20T06:28:13;8.87;;;5.10;;
11582;SDS011;34299;50.820;4.548;2023-07-20T06:30:40;6.63;;;4.83;;
11582;SDS011;34299;50.820;4.548;2023-07-20T06:33:07;10.97;;;6.10;;
11582;SDS011;34299;50.820;4.548;2023-07-20T06:35:34;7.57;;;4.87;;
11582;SDS011;34299;50.820;4.548;2023-07-20T06:38:02;8.97;;;5.63;;
11582;SDS011;34299;50.820;4.548;2023-07-20T06:40:29;6.97;;;4.50;;
11582;SDS011;34299;50.820;4.548;2023-07-20T06:42:58;9.70;;;4.90;;
11582;SDS011;34299;50.820;4.548;2023-07-20T06:45:25;4.53;;;3.87;;
11582;SDS011;34299;50.820;4.548;2023-07-20T06:47:52;6.40;;;4.43;;
11582;SDS011;34299;50.820;4.548;2023-07-20T06:50:19;6.47;;;3.93;;
11582;SDS011;34299;50.820;4.548;2023-07-20T06:52:46;6.47;;;4.33;;
11582;SDS011;34299;50.820;4.548;2023-07-20T06:55:14;7.57;;;5.00;;
11582;SDS011;34299;50.820;4.548;2023-07-20T06:57:41;5.90;;;4.17;;
11582;SDS011;34299;50.820;4.548;2023-07-20T07:00:10;6.37;;;3.60;;
11582;SDS011;34299;50.820;4.548;2023-07-20T07:02:38;6.03;;;4.23;;
11582;SDS011;34299;50.820;4.548;2023-07-20T07:05:06;6.57;;;3.80;;
11582;SDS011;34299;50.820;4.548;2023-07-20T07:07:33;4.37;;;3.63;;
11582;SDS011;34299;50.820;4.548;2023-07-20T07:10:01;6.10;;;3.43;;
11582;SDS011;34299;50.820;4.548;2023-07-20T07:12:30;4.13;;;3.73;;
11582;SDS011;34299;50.820;4.548;2023-07-20T07:14:57;4.87;;;3.43;;
11582;SDS011;34299;50.820;4.548;2023-07-20T07:17:26;4.03;;;3.13;;
11582;SDS011;34299;50.820;4.548;2023-07-20T07:19:54;7.03;;;3.30;;
11582;SDS011;34299;50.820;4.548;2023-07-20T07:22:21;4.33;;;2.53;;
11582;SDS011;34299;50.820;4.548;2023-07-20T07:24:49;5.23;;;2.97;;
11582;SDS011;34299;50.820;4.548;2023-07-20T07:27:16;3.13;;;2.60;;
11582;SDS011;34299;50.820;4.548;2023-07-20T07:29:43;3.67;;;2.40;;
11582;SDS011;34299;50.820;4.548;2023-07-20T07:32:10;3.03;;;2.17;;
11582;SDS011;34299;50.820;4.548;2023-07-20T07:34:39;2.33;;;2.13;;
11582;SDS011;34299;50.820;4.548;2023-07-20T07:37:06;3.57;;;2.07;;
11582;SDS011;34299;50.820;4.548;2023-07-20T07:39:33;2.30;;;2.10;;
11582;SDS011;34299;50.820;4.548;2023-07-20T07:42:00;4.20;;;2.60;;
11582;SDS011;34299;50.820;4.548;2023-07-20T07:44:28;4.23;;;2.63;;
11582;SDS011;34299;50.820;4.548;2023-07-20T07:46:55;3.30;;;2.20;;
11582;SDS011;34299;50.820;4.548;2023-07-20T07:49:22;3.83;;;2.50;;
11582;SDS011;34299;50.820;4.548;2023-07-20T07:51:51;3.23;;;2.20;;
11582;SDS011;34299;50.820;4.548;2023-07-20T07:54:18;4.13;;;2.50;;
11582;SDS011;34299;50.820;4.548;2023-07-20T07:56:45;2.20;;;1.87;;
11582;SDS011;34299;50.820;4.548;2023-07-20T07:59:12;2.30;;;2.10;;
11582;SDS011;34299;50.820;4.548;2023-07-20T08:01:40;4.60;;;2.17;;
11582;SDS011;34299;50.820;4.548;2023-07-20T08:04:07;2.87;;;1.80;;
11582;SDS011;34299;50.820;4.548;2023-07-20T08:06:34;1.57;;;1.47;;
11582;SDS011;34299;50.820;4.548;2023-07-20T08:09:03;2.53;;;1.87;;
11582;SDS011;34299;50.820;4.548;2023-07-20T08:11:30;2.17;;;2.03;;
11582;SDS011;34299;50.820;4.548;2023-07-20T08:13:59;2.10;;;1.73;;
11582;SDS011;34299;50.820;4.548;2023-07-20T08:16:26;2.60;;;1.80;;
11582;SDS011;34299;50.820;4.548;2023-07-20T08:18:53;2.07;;;1.83;;
11582;SDS011;34299;50.820;4.548;2023-07-20T08:21:21;1.87;;;1.73;;
11582;SDS011;34299;50.820;4.548;2023-07-20T08:23:48;1.80;;;1.27;;
11582;SDS011;34299;50.820;4.548;2023-07-20T08:26:16;1.10;;;1.10;;
11582;SDS011;34299;50.820;4.548;2023-07-20T08:28:44;1.57;;;1.20;;
11582;SDS011;34299;50.820;4.548;2023-07-20T08:31:13;1.70;;;1.10;;
11582;SDS011;34299;50.820;4.548;2023-07-20T08:33:40;1.00;;;0.90;;
11582;SDS011;34299;50.820;4.548;2023-07-20T08:36:08;1.57;;;1.10;;
11582;SDS011;34299;50.820;4.548;2023-07-20T08:38:35;1.07;;;0.80;;
11582;SDS011;34299;50.820;4.548;2023-07-20T08:41:02;2.07;;;1.27;;
11582;SDS011;34299;50.820;4.548;2023-07-20T08:43:31;1.60;;;1.07;;
11582;SDS011;34299;50.820;4.548;2023-07-20T08:45:58;1.10;;;0.97;;
11582;SDS011;34299;50.820;4.548;2023-07-20T08:48:25;1.00;;;0.93;;
11582;SDS011;34299;50.820;4.548;2023-07-20T08:50:54;1.20;;;1.10;;
11582;SDS011;34299;50.820;4.548;2023-07-20T08:53:22;1.90;;;1.30;;
11582;SDS011;34299;50.820;4.548;2023-07-20T08:55:50;1.10;;;0.97;;
11582;SDS011;34299;50.820;4.548;2023-07-20T08:58:18;1.13;;;1.00;;
11582;SDS011;34299;50.820;4.548;2023-07-20T09:00:47;1.17;;;0.80;;
11582;SDS011;34299;50.820;4.548;2023-07-20T09:03:17;0.93;;;0.93;;
11582;SDS011;34299;50.820;4.548;2023-07-20T09:05:45;1.87;;;0.90;;
11582;SDS011;34299;50.820;4.548;2023-07-20T09:08:12;1.83;;;0.80;;
11582;SDS011;34299;50.820;4.548;2023-07-20T09:10:39;3.07;;;1.10;;
11582;SDS011;34299;50.820;4.548;2023-07-20T09:13:06;0.87;;;0.63;;
11582;SDS011;34299;50.820;4.548;2023-07-20T09:15:33;1.30;;;0.90;;
11582;SDS011;34299;50.820;4.548;2023-07-20T09:18:02;0.87;;;0.80;;
11582;SDS011;34299;50.820;4.548;2023-07-20T09:20:31;1.13;;;0.73;;
11582;SDS011;34299;50.820;4.548;2023-07-20T09:22:59;0.90;;;0.80;;
11582;SDS011;34299;50.820;4.548;2023-07-20T09:25:27;0.73;;;0.70;;
11582;SDS011;34299;50.820;4.548;2023-07-20T09:27:54;1.30;;;1.07;;
11582;SDS011;34299;50.820;4.548;2023-07-20T09:30:24;3.83;;;1.40;;
11582;SDS011;34299;50.820;4.548;2023-07-20T09:32:51;2.37;;;1.20;;
11582;SDS011;34299;50.820;4.548;2023-07-20T09:35:21;2.63;;;1.20;;
11582;SDS011;34299;50.820;4.548;2023-07-20T09:37:49;2.27;;;1.30;;
11582;SDS011;34299;50.820;4.548;2023-07-20T09:40:18;0.93;;;0.93;;
11582;SDS011;34299;50.820;4.548;2023-07-20T09:42:46;3.10;;;1.27;;
11582;SDS011;34299;50.820;4.548;2023-07-20T09:45:14;1.30;;;1.20;;
11582;SDS011;34299;50.820;4.548;2023-07-20T09:47:41;3.33;;;1.40;;
11582;SDS011;34299;50.820;4.548;2023-07-20T09:50:08;1.30;;;1.20;;
11582;SDS011;34299;50.820;4.548;2023-07-20T09:52:41;2.50;;;1.30;;
11582;SDS011;34299;50.820;4.548;2023-07-20T09:55:09;1.50;;;1.40;;
11582;SDS011;34299;50.820;4.548;2023-07-20T09:57:37;1.20;;;1.10;;
11582;SDS011;34299;50.820;4.548;2023-07-20T10:00:05;1.50;;;1.10;;
11582;SDS011;34299;50.820;4.548;2023-07-20T10:02:40;2.47;;;1.30;;
11582;SDS011;34299;50.820;4.548;2023-07-20T10:05:08;1.13;;;1.03;;
11582;SDS011;34299;50.820;4.548;2023-07-20T10:07:40;1.33;;;1.07;;
11582;SDS011;34299;50.820;4.548;2023-07-20T10:10:10;1.80;;;1.20;;
11582;SDS011;34299;50.820;4.548;2023-07-20T10:12:38;1.80;;;1.37;;
11582;SDS011;34299;50.820;4.548;2023-07-20T10:15:09;1.47;;;1.37;;
11582;SDS011;34299;50.820;4.548;2023-07-20T10:17:39;1.30;;;1.20;;
11582;SDS011;34299;50.820;4.548;2023-07-20T10:20:07;2.07;;;1.33;;
11582;SDS011;34299;50.820;4.548;2023-07-20T10:22:36;1.60;;;1.30;;
11582;SDS011;34299;50.820;4.548;2023-07-20T10:25:03;2.70;;;1.43;;
11582;SDS011;34299;50.820;4.548;2023-07-20T10:27:33;2.63;;;1.40;;
11582;SDS011;34299;50.820;4.548;2023-07-20T10:30:00;2.30;;;1.63;;
11582;SDS011;34299;50.820;4.548;2023-07-20T10:32:29;2.00;;;1.17;;
11582;SDS011;34299;50.820;4.548;2023-07-20T10:34:56;2.40;;;1.50;;
11582;SDS011;34299;50.820;4.548;2023-07-20T10:43:02;2.03;;;1.30;;
11582;SDS011;34299;50.820;4.548;2023-07-20T10:48:17;1.90;;;1.37;;
11582;SDS011;34299;50.820;4.548;2023-07-20T10:50:46;1.27;;;1.13;;
11582;SDS011;34299;50.820;4.548;2023-07-20T10:53:13;2.70;;;1.00;;
11582;SDS011;34299;50.820;4.548;2023-07-20T10:55:41;1.43;;;1.20;;
11582;SDS011;34299;50.820;4.548;2023-07-20T10:58:11;1.60;;;1.47;;
11582;SDS011;34299;50.820;4.548;2023-07-20T11:00:54;1.50;;;1.13;;
11582;SDS011;34299;50.820;4.548;2023-07-20T11:03:28;2.03;;;1.30;;
11582;SDS011;34299;50.820;4.548;2023-07-20T11:05:56;3.67;;;1.70;;
11582;SDS011;34299;50.820;4.548;2023-07-20T11:08:39;1.63;;;1.53;;
11582;SDS011;34299;50.820;4.548;2023-07-20T11:11:22;1.20;;;1.00;;
11582;SDS011;34299;50.820;4.548;2023-07-20T11:13:54;1.37;;;1.00;;
11582;SDS011;34299;50.820;4.548;2023-07-20T11:16:32;1.90;;;1.13;;
11582;SDS011;34299;50.820;4.548;2023-07-20T11:18:59;1.20;;;0.80;;
11582;SDS011;34299;50.820;4.548;2023-07-20T11:21:26;2.23;;;1.23;;
11582;SDS011;34299;50.820;4.548;2023-07-20T11:23:54;1.27;;;1.00;;
11582;SDS011;34299;50.820;4.548;2023-07-20T11:26:22;2.50;;;1.30;;
11582;SDS011;34299;50.820;4.548;2023-07-20T11:28:49;0.90;;;0.90;;
11582;SDS011;34299;50.820;4.548;2023-07-20T11:31:18;1.20;;;1.10;;
11582;SDS011;34299;50.820;4.548;2023-07-20T11:33:46;1.10;;;1.00;;
11582;SDS011;34299;50.820;4.548;2023-07-20T11:36:13;4.20;;;1.20;;
11582;SDS011;34299;50.820;4.548;2023-07-20T11:38:43;1.37;;;1.13;;
11582;SDS011;34299;50.820;4.548;2023-07-20T11:41:12;1.20;;;1.10;;
11582;SDS011;34299;50.820;4.548;2023-07-20T11:43:40;2.27;;;1.00;;
11582;SDS011;34299;50.820;4.548;2023-07-20T11:46:08;1.37;;;1.17;;
11582;SDS011;34299;50.820;4.548;2023-07-20T11:48:37;1.27;;;0.80;;
11582;SDS011;34299;50.820;4.548;2023-07-20T11:51:05;1.30;;;1.20;;
11582;SDS011;34299;50.820;4.548;2023-07-20T11:53:32;2.83;;;1.30;;
11582;SDS011;34299;50.820;4.548;2023-07-20T11:55:59;1.13;;;1.03;;
11582;SDS011;34299;50.820;4.548;2023-07-20T11:58:27;1.37;;;1.10;;
11582;SDS011;34299;50.820;4.548;2023-07-20T12:00:55;1.03;;;1.00;;
11582;SDS011;34299;50.820;4.548;2023-07-20T12:03:22;1.70;;;1.23;;
11582;SDS011;34299;50.820;4.548;2023-07-20T12:05:51;2.13;;;1.07;;
11582;SDS011;34299;50.820;4.548;2023-07-20T12:08:18;1.73;;;1.27;;
11582;SDS011;34299;50.820;4.548;2023-07-20T12:10:46;1.23;;;1.13;;
11582;SDS011;34299;50.820;4.548;2023-07-20T12:13:15;1.50;;;1.20;;
11582;SDS011;34299;50.820;4.548;2023-07-20T12:15:43;1.83;;;1.10;;
11582;SDS011;34299;50.820;4.548;2023-07-20T12:18:10;1.10;;;1.00;;
11582;SDS011;34299;50.820;4.548;2023-07-20T12:20:37;2.07;;;1.30;;
11582;SDS011;34299;50.820;4.548;2023-07-20T12:23:08;1.40;;;1.30;;
11582;SDS011;34299;50.820;4.548;2023-07-20T12:25:39;1.23;;;1.13;;
11582;SDS011;34299;50.820;4.548;2023-07-20T12:28:07;1.40;;;1.30;;
11582;SDS011;34299;50.820;4.548;2023-07-20T12:30:34;2.10;;;1.30;;
11582;SDS011;34299;50.820;4.548;2023-07-20T12:33:02;2.17;;;1.37;;
11582;SDS011;34299;50.820;4.548;2023-07-20T12:35:29;1.57;;;1.40;;
11582;SDS011;34299;50.820;4.548;2023-07-20T12:37:56;1.80;;;1.70;;
11582;SDS011;34299;50.820;4.548;2023-07-20T12:40:25;2.07;;;1.70;;
11582;SDS011;34299;50.820;4.548;2023-07-20T12:42:52;1.43;;;1.20;;
11582;SDS011;34299;50.820;4.548;2023-07-20T12:45:20;1.97;;;1.30;;
11582;SDS011;34299;50.820;4.548;2023-07-20T12:47:47;1.93;;;1.60;;
11582;SDS011;34299;50.820;4.548;2023-07-20T12:50:14;2.17;;;1.83;;
11582;SDS011;34299;50.820;4.548;2023-07-20T12:52:41;1.60;;;1.50;;
11582;SDS011;34299;50.820;4.548;2023-07-20T12:55:09;2.07;;;1.40;;
11582;SDS011;34299;50.820;4.548;2023-07-20T12:57:38;2.80;;;1.77;;
11582;SDS011;34299;50.820;4.548;2023-07-20T13:00:06;1.53;;;1.43;;
11582;SDS011;34299;50.820;4.548;2023-07-20T13:02:34;2.90;;;1.60;;
11582;SDS011;34299;50.820;4.548;2023-07-20T13:05:01;1.60;;;1.50;;
11582;SDS011;34299;50.820;4.548;2023-07-20T13:07:29;1.40;;;1.30;;
11582;SDS011;34299;50.820;4.548;2023-07-20T13:09:57;1.60;;;1.50;;
11582;SDS011;34299;50.820;4.548;2023-07-20T13:12:25;1.67;;;1.57;;
11582;SDS011;34299;50.820;4.548;2023-07-20T13:14:54;3.80;;;1.97;;
11582;SDS011;34299;50.820;4.548;2023-07-20T13:17:22;1.60;;;1.50;;
11582;SDS011;34299;50.820;4.548;2023-07-20T13:19:49;2.03;;;1.43;;
11582;SDS011;34299;50.820;4.548;2023-07-20T13:22:16;1.70;;;1.60;;
11582;SDS011;34299;50.820;4.548;2023-07-20T13:24:44;1.67;;;1.33;;
11582;SDS011;34299;50.820;4.548;2023-07-20T13:27:13;3.17;;;1.93;;
11582;SDS011;34299;50.820;4.548;2023-07-20T13:29:41;1.63;;;1.53;;
11582;SDS011;34299;50.820;4.548;2023-07-20T13:32:09;1.87;;;1.77;;
11582;SDS011;34299;50.820;4.548;2023-07-20T13:34:37;1.70;;;1.60;;
11582;SDS011;34299;50.820;4.548;2023-07-20T13:37:04;1.50;;;1.30;;
11582;SDS011;34299;50.820;4.548;2023-07-20T13:39:32;2.23;;;1.73;;
11582;SDS011;34299;50.820;4.548;2023-07-20T13:41:59;2.47;;;1.77;;
11582;SDS011;34299;50.820;4.548;2023-07-20T13:44:29;3.10;;;1.90;;
11582;SDS011;34299;50.820;4.548;2023-07-20T13:46:56;1.70;;;1.60;;
11582;SDS011;34299;50.820;4.548;2023-07-20T13:49:25;2.03;;;1.80;;
11582;SDS011;34299;50.820;4.548;2023-07-20T13:51:52;2.00;;;1.73;;
11582;SDS011;34299;50.820;4.548;2023-07-20T13:54:19;2.10;;;1.90;;
11582;SDS011;34299;50.820;4.548;2023-07-20T13:56:46;3.73;;;1.80;;
11582;SDS011;34299;50.820;4.548;2023-07-20T13:59:13;2.27;;;1.93;;
11582;SDS011;34299;50.820;4.548;2023-07-20T14:01:41;1.90;;;1.80;;
11582;SDS011;34299;50.820;4.548;2023-07-20T14:04:08;2.60;;;1.90;;
11582;SDS011;34299;50.820;4.548;2023-07-20T14:06:36;2.23;;;2.03;;
11582;SDS011;34299;50.820;4.548;2023-07-20T14:09:04;1.70;;;1.60;;
11582;SDS011;34299;50.820;4.548;2023-07-20T14:11:31;2.00;;;1.80;;
11582;SDS011;34299;50.820;4.548;2023-07-20T14:13:58;2.07;;;1.93;;
11582;SDS011;34299;50.820;4.548;2023-07-20T14:16:25;2.07;;;1.83;;
11582;SDS011;34299;50.820;4.548;2023-07-20T14:18:53;2.13;;;1.87;;
11582;SDS011;34299;50.820;4.548;2023-07-20T14:21:20;1.80;;;1.70;;
11582;SDS011;34299;50.820;4.548;2023-07-20T14:23:50;1.70;;;1.60;;
11582;SDS011;34299;50.820;4.548;2023-07-20T14:26:18;2.97;;;1.90;;
11582;SDS011;34299;50.820;4.548;2023-07-20T14:28:45;1.60;;;1.50;;
11582;SDS011;34299;50.820;4.548;2023-07-20T14:31:13;2.07;;;1.77;;
11582;SDS011;34299;50.820;4.548;2023-07-20T14:33:40;2.00;;;1.67;;
11582;SDS011;34299;50.820;4.548;2023-07-20T14:36:07;1.77;;;1.67;;
11582;SDS011;34299;50.820;4.548;2023-07-20T14:38:34;2.10;;;1.90;;
11582;SDS011;34299;50.820;4.548;2023-07-20T14:41:03;2.30;;;1.53;;
11582;SDS011;34299;50.820;4.548;2023-07-20T14:43:31;2.63;;;1.57;;
11582;SDS011;34299;50.820;4.548;2023-07-20T14:45:58;1.33;;;1.20;;
11582;SDS011;34299;50.820;4.548;2023-07-20T14:48:26;1.60;;;1.47;;
11582;SDS011;34299;50.820;4.548;2023-07-20T14:50:53;1.20;;;1.10;;
11582;SDS011;34299;50.820;4.548;2023-07-20T14:53:20;1.63;;;1.53;;
11582;SDS011;34299;50.820;4.548;2023-07-20T14:55:49;1.63;;;1.53;;
11582;SDS011;34299;50.820;4.548;2023-07-20T14:58:18;1.50;;;1.40;;
11582;SDS011;34299;50.820;4.548;2023-07-20T15:00:46;3.40;;;1.40;;